WIIIWITT

Guest
Details From WIII - Jakarta Sukarno-hatta Intl
To WITT - Banda Aceh Sultan Iskandarmuda
Flight Number -
Tags Generated
Created
Modified
Stats Distance 974 nm / 1,803 km
Max Altitude 0 ft / 0 m
Waypoints 6
Social Downloads 1
Likes 0
Share VATSIM

Download

Looking for another format? Having issues loading an existing format? Contact us
Advertisement - Login to hide

Notes

Generated

Route

WIII AK PKU30 BIRAS BAC WITT

ID Type Via Altitude Latitude Longitude Leg Dist Tot Dist Heading (true) Name
O WIII APT - 0 ft / 0 m -6.12106˚ 106.63876˚ - 0 nm - -
AK NDB - 0 ft / 0 m -4.58333˚ 105.26667˚ 123 nm 123 nm 318° / 318° ASTRA KESETRA NDB
PKU30 FIX - 0 ft / 0 m -0.05289˚ 101.44149˚ 355 nm 479 nm 320° / 320° -
BIRAS FIX - 0 ft / 0 m 1.13306˚ 99.80583˚ 121 nm 600 nm 306° / 306° -
BAC VOR - 0 ft / 0 m 5.52263˚ 95.42222˚ 372 nm 973 nm 315° / 315° BANDA ACEH VOR-DME
O WITT APT - 0 ft / 0 m 5.53457˚ 95.41809˚ 0 nm 973 nm 341° / 341° -

Altitude Profile

Advertisement - Login to hide

Weather


0- 5 10 15 20 25 30 35+ Temperature / ° C

Clouds and Precipitation
Forecast for 2017-12-17 06:00 UTC. Updated an hour ago

Ground ~20,000 ft ~40,000 ft Winds

WIII

Details ICAO WIII (CGK)
Name Jakarta Sukarno-Hatta Intl
Region Indonesia
Timezone Asia/Jakarta (UTC+7.0)
Stats Elevation 34 ft / 10 m (AMSL)
Location -6.125743° 106.656405°
Runways 2
Magnetic Variation 0.630° E

METAR

WIII 170230Z VRB05KT 7000 SCT020 28/24 Q1012 NOSIG

Decode

TAF

TAF WIII 161700Z 1618/1800 22005KT 4000 BR SCT020 BECMG 1701/1703 28010KT 9000

Decode

Departure Runways

ID Width Length Bearing (true) Bearing (mag) Surface Threshold Offset Overrun Length
07L 197 ft / 60 m 11,823 ft / 3,604 m 68.13° 67.50° Concrete 0 ft / 0 m 200 ft / 61 m
07R 197 ft / 60 m 12,024 ft / 3,665 m 68.12° 67.49° Concrete 0 ft / 0 m 200 ft / 61 m
25L 197 ft / 60 m 12,024 ft / 3,665 m 248.12° 247.49° Concrete 0 ft / 0 m 200 ft / 61 m
25R 197 ft / 60 m 11,823 ft / 3,604 m 248.12° 247.49° Concrete 0 ft / 0 m 200 ft / 61 m

WITT

Details ICAO WITT (BTJ)
Name Banda Aceh Sultan Iskandarmuda
Region Indonesia
Timezone Asia/Jakarta (UTC+7.0)
Stats Elevation 65 ft / 20 m (AMSL)
Location 5.523523° 95.420372°
Runways 1
Magnetic Variation 0.697° W

METAR

Not found

TAF

TAF WITT 162300Z 1700/1724 14007KT 9999 SCT019 BECMG 1704/1706 04007KT FEW018 BECMG 1711/1713 9999 16005KT SCT017

Decode

Destination Runways

ID Width Length Bearing (true) Bearing (mag) Surface Threshold Offset Overrun Length
17 148 ft / 45 m 8,229 ft / 2,508 m 168.37° 169.07° Asphalt 0 ft / 0 m 210 ft / 64 m
35 148 ft / 45 m 8,229 ft / 2,508 m 348.37° 349.07° Asphalt 0 ft / 0 m 220 ft / 67 m

Approach Navaids

Runway Type Ident Frequency Range Bearing (true) Bearing (mag) Slope Elevation
17 Localiser IBAC 111.30 MHz 18 nm / 33 km 168.46° 169.16° - 65 ft / 20 m (AMSL)
17 Glidescope IBAC 111.30 MHz 10 nm / 19 km 168.37° 169.07° 3.00° 65 ft / 20 m (AMSL)

Popular Alternatives